sensor_id;sensor_type;location;lat;lon;timestamp;temperature;humidity
55331;DHT22;58851;42.984;20.336;2023-04-28T00:00:43;102.40;6476.80
55331;DHT22;58851;42.984;20.336;2023-04-28T00:03:09;102.40;6476.80
55331;DHT22;58851;42.984;20.336;2023-04-28T00:05:35;102.40;6476.80
55331;DHT22;58851;42.984;20.336;2023-04-28T00:08:01;77.70;6476.80
55331;DHT22;58851;42.984;20.336;2023-04-28T00:10:29;77.70;6476.80
55331;DHT22;58851;42.984;20.336;2023-04-28T00:12:55;77.60;6476.80
55331;DHT22;58851;42.984;20.336;2023-04-28T00:15:21;77.60;6476.80
55331;DHT22;58851;42.984;20.336;2023-04-28T00:17:46;77.60;6476.80
55331;DHT22;58851;42.984;20.336;2023-04-28T00:20:12;77.60;6476.80
55331;DHT22;58851;42.984;20.336;2023-04-28T00:22:38;77.60;6476.80
55331;DHT22;58851;42.984;20.336;2023-04-28T00:25:05;77.60;6476.80
55331;DHT22;58851;42.984;20.336;2023-04-28T00:27:33;77.50;6476.80
55331;DHT22;58851;42.984;20.336;2023-04-28T00:29:58;77.50;6476.80
55331;DHT22;58851;42.984;20.336;2023-04-28T00:32:24;77.40;6476.80
55331;DHT22;58851;42.984;20.336;2023-04-28T00:34:50;77.40;6476.80
55331;DHT22;58851;42.984;20.336;2023-04-28T00:37:16;77.40;6476.80
55331;DHT22;58851;42.984;20.336;2023-04-28T00:39:42;77.40;6476.80
55331;DHT22;58851;42.984;20.336;2023-04-28T00:42:12;77.40;6476.80
55331;DHT22;58851;42.984;20.336;2023-04-28T00:44:38;77.40;6476.80
55331;DHT22;58851;42.984;20.336;2023-04-28T00:47:05;77.40;6476.80
55331;DHT22;58851;42.984;20.336;2023-04-28T00:49:32;77.40;6476.80
55331;DHT22;58851;42.984;20.336;2023-04-28T00:52:00;77.30;6476.80
55331;DHT22;58851;42.984;20.336;2023-04-28T00:54:29;77.30;6476.80
55331;DHT22;58851;42.984;20.336;2023-04-28T00:56:55;77.20;6476.80
55331;DHT22;58851;42.984;20.336;2023-04-28T00:59:22;77.20;6476.80
55331;DHT22;58851;42.984;20.336;2023-04-28T01:01:48;77.20;6476.80
55331;DHT22;58851;42.984;20.336;2023-04-28T01:04:17;77.20;6476.80
55331;DHT22;58851;42.984;20.336;2023-04-28T01:06:46;77.10;6476.80
55331;DHT22;58851;42.984;20.336;2023-04-28T01:09:11;77.10;6476.80
55331;DHT22;58851;42.984;20.336;2023-04-28T01:11:37;77.10;6476.80
55331;DHT22;58851;42.984;20.336;2023-04-28T01:14:03;77.10;6476.80
55331;DHT22;58851;42.984;20.336;2023-04-28T01:16:29;77.10;6476.80
55331;DHT22;58851;42.984;20.336;2023-04-28T01:18:57;77.10;6476.80
55331;DHT22;58851;42.984;20.336;2023-04-28T01:21:32;77.10;6476.80
55331;DHT22;58851;42.984;20.336;2023-04-28T01:23:59;77.00;6476.80
55331;DHT22;58851;42.984;20.336;2023-04-28T01:26:25;77.00;6476.80
55331;DHT22;58851;42.984;20.336;2023-04-28T01:28:51;76.90;6476.80
55331;DHT22;58851;42.984;20.336;2023-04-28T01:31:17;76.90;6476.80
55331;DHT22;58851;42.984;20.336;2023-04-28T01:33:42;76.90;6476.80
55331;DHT22;58851;42.984;20.336;2023-04-28T01:36:08;76.90;6476.80
55331;DHT22;58851;42.984;20.336;2023-04-28T01:38:34;76.80;6476.80
55331;DHT22;58851;42.984;20.336;2023-04-28T01:41:00;76.80;6476.80
55331;DHT22;58851;42.984;20.336;2023-04-28T01:43:27;76.80;6476.80
55331;DHT22;58851;42.984;20.336;2023-04-28T01:45:53;52.10;6476.80
55331;DHT22;58851;42.984;20.336;2023-04-28T01:48:19;52.10;6476.80
55331;DHT22;58851;42.984;20.336;2023-04-28T01:50:45;52.10;6476.80
55331;DHT22;58851;42.984;20.336;2023-04-28T01:53:11;52.10;6476.80
55331;DHT22;58851;42.984;20.336;2023-04-28T01:55:39;52.10;6476.80
55331;DHT22;58851;42.984;20.336;2023-04-28T01:58:05;52.10;6476.80
55331;DHT22;58851;42.984;20.336;2023-04-28T02:00:31;52.10;6476.80
55331;DHT22;58851;42.984;20.336;2023-04-28T02:02:57;52.00;6476.80
55331;DHT22;58851;42.984;20.336;2023-04-28T02:05:23;52.00;6476.80
55331;DHT22;58851;42.984;20.336;2023-04-28T02:07:49;52.00;6476.80
55331;DHT22;58851;42.984;20.336;2023-04-28T02:10:15;52.00;6476.80
55331;DHT22;58851;42.984;20.336;2023-04-28T02:12:41;52.00;6476.80
55331;DHT22;58851;42.984;20.336;2023-04-28T02:15:07;52.00;6476.80
55331;DHT22;58851;42.984;20.336;2023-04-28T02:17:33;52.00;6476.80
55331;DHT22;58851;42.984;20.336;2023-04-28T02:19:59;51.90;6476.80
55331;DHT22;58851;42.984;20.336;2023-04-28T02:22:25;51.90;6476.80
55331;DHT22;58851;42.984;20.336;2023-04-28T02:24:51;51.90;6476.80
55331;DHT22;58851;42.984;20.336;2023-04-28T02:27:17;51.80;6476.80
55331;DHT22;58851;42.984;20.336;2023-04-28T02:29:43;51.80;6476.80
55331;DHT22;58851;42.984;20.336;2023-04-28T02:32:09;51.80;6476.80
55331;DHT22;58851;42.984;20.336;2023-04-28T02:34:35;51.80;6476.80
55331;DHT22;58851;42.984;20.336;2023-04-28T02:37:00;51.80;6476.80
55331;DHT22;58851;42.984;20.336;2023-04-28T02:39:26;51.80;6476.80
55331;DHT22;58851;42.984;20.336;2023-04-28T02:41:54;51.80;6476.80
55331;DHT22;58851;42.984;20.336;2023-04-28T02:44:21;51.80;6476.80
55331;DHT22;58851;42.984;20.336;2023-04-28T02:46:47;51.70;6476.80
55331;DHT22;58851;42.984;20.336;2023-04-28T02:49:12;51.80;6476.80
55331;DHT22;58851;42.984;20.336;2023-04-28T02:51:39;51.80;6476.80
55331;DHT22;58851;42.984;20.336;2023-04-28T02:54:05;51.80;6476.80
55331;DHT22;58851;42.984;20.336;2023-04-28T02:56:30;51.90;6476.80
55331;DHT22;58851;42.984;20.336;2023-04-28T02:58:57;51.90;6476.80
55331;DHT22;58851;42.984;20.336;2023-04-28T03:01:23;51.80;6476.80
55331;DHT22;58851;42.984;20.336;2023-04-28T03:03:49;51.90;6476.80
55331;DHT22;58851;42.984;20.336;2023-04-28T03:06:14;51.90;6476.80
55331;DHT22;58851;42.984;20.336;2023-04-28T03:08:40;51.80;6476.80
55331;DHT22;58851;42.984;20.336;2023-04-28T03:11:06;51.80;6476.80
55331;DHT22;58851;42.984;20.336;2023-04-28T03:13:32;51.80;6476.80
55331;DHT22;58851;42.984;20.336;2023-04-28T03:16:00;51.80;6476.80
55331;DHT22;58851;42.984;20.336;2023-04-28T03:18:26;51.70;6476.80
55331;DHT22;58851;42.984;20.336;2023-04-28T03:20:52;51.70;6476.80
55331;DHT22;58851;42.984;20.336;2023-04-28T03:23:17;51.70;6476.80
55331;DHT22;58851;42.984;20.336;2023-04-28T03:25:43;51.60;6476.80
55331;DHT22;58851;42.984;20.336;2023-04-28T03:28:09;51.60;6476.80
55331;DHT22;58851;42.984;20.336;2023-04-28T03:30:35;51.50;6476.80
55331;DHT22;58851;42.984;20.336;2023-04-28T03:33:01;51.50;6476.80
55331;DHT22;58851;42.984;20.336;2023-04-28T03:35:27;51.50;6476.80
55331;DHT22;58851;42.984;20.336;2023-04-28T03:37:52;51.40;6476.80
55331;DHT22;58851;42.984;20.336;2023-04-28T03:40:18;51.40;6476.80
55331;DHT22;58851;42.984;20.336;2023-04-28T03:42:44;51.40;6476.80
55331;DHT22;58851;42.984;20.336;2023-04-28T03:45:10;51.40;6476.80
55331;DHT22;58851;42.984;20.336;2023-04-28T03:47:37;51.40;6476.80
55331;DHT22;58851;42.984;20.336;2023-04-28T03:50:03;51.40;6476.80
55331;DHT22;58851;42.984;20.336;2023-04-28T03:52:28;51.40;6476.80
55331;DHT22;58851;42.984;20.336;2023-04-28T03:54:54;51.40;6476.80
55331;DHT22;58851;42.984;20.336;2023-04-28T03:57:20;51.40;6476.80
55331;DHT22;58851;42.984;20.336;2023-04-28T03:59:46;51.40;6476.80
55331;DHT22;58851;42.984;20.336;2023-04-28T04:02:11;51.40;6476.80
55331;DHT22;58851;42.984;20.336;2023-04-28T04:04:37;51.40;6476.80
55331;DHT22;58851;42.984;20.336;2023-04-28T04:07:03;51.40;6476.80
55331;DHT22;58851;42.984;20.336;2023-04-28T04:09:29;51.40;6476.80
55331;DHT22;58851;42.984;20.336;2023-04-28T04:11:55;51.40;6476.80
55331;DHT22;58851;42.984;20.336;2023-04-28T04:14:20;51.40;6476.80
55331;DHT22;58851;42.984;20.336;2023-04-28T04:16:47;51.40;6476.80
55331;DHT22;58851;42.984;20.336;2023-04-28T04:19:13;51.40;6476.80
55331;DHT22;58851;42.984;20.336;2023-04-28T04:21:38;51.40;6476.80
55331;DHT22;58851;42.984;20.336;2023-04-28T04:24:04;51.40;6476.80
55331;DHT22;58851;42.984;20.336;2023-04-28T04:26:30;51.50;6476.80
55331;DHT22;58851;42.984;20.336;2023-04-28T04:28:56;51.60;6476.80
55331;DHT22;58851;42.984;20.336;2023-04-28T04:31:22;51.70;6476.80
55331;DHT22;58851;42.984;20.336;2023-04-28T04:33:48;51.70;6476.80
55331;DHT22;58851;42.984;20.336;2023-04-28T04:36:13;51.60;6476.80
55331;DHT22;58851;42.984;20.336;2023-04-28T04:38:39;51.70;6476.80
55331;DHT22;58851;42.984;20.336;2023-04-28T04:41:05;51.70;6476.80
55331;DHT22;58851;42.984;20.336;2023-04-28T04:43:31;51.70;6476.80
55331;DHT22;58851;42.984;20.336;2023-04-28T04:45:57;51.80;6476.80
55331;DHT22;58851;42.984;20.336;2023-04-28T04:48:23;51.80;6476.80
55331;DHT22;58851;42.984;20.336;2023-04-28T04:50:48;51.90;6476.80
55331;DHT22;58851;42.984;20.336;2023-04-28T04:53:14;52.00;6476.80
55331;DHT22;58851;42.984;20.336;2023-04-28T04:55:40;52.00;6476.80
55331;DHT22;58851;42.984;20.336;2023-04-28T04:58:06;52.10;6476.80
55331;DHT22;58851;42.984;20.336;2023-04-28T05:00:32;52.10;6476.80
55331;DHT22;58851;42.984;20.336;2023-04-28T05:02:59;52.10;6476.80
55331;DHT22;58851;42.984;20.336;2023-04-28T05:05:24;76.80;6476.80
55331;DHT22;58851;42.984;20.336;2023-04-28T05:07:50;76.80;6476.80
55331;DHT22;58851;42.984;20.336;2023-04-28T05:10:16;76.90;6476.80
55331;DHT22;58851;42.984;20.336;2023-04-28T05:12:42;77.00;6476.80
55331;DHT22;58851;42.984;20.336;2023-04-28T05:15:09;77.00;6476.80
55331;DHT22;58851;42.984;20.336;2023-04-28T05:17:35;77.00;6476.80
55331;DHT22;58851;42.984;20.336;2023-04-28T05:20:02;77.10;6476.80
55331;DHT22;58851;42.984;20.336;2023-04-28T05:22:27;77.20;6476.80
55331;DHT22;58851;42.984;20.336;2023-04-28T05:24:55;77.20;6476.80
55331;DHT22;58851;42.984;20.336;2023-04-28T05:27:21;77.20;6476.80
55331;DHT22;58851;42.984;20.336;2023-04-28T05:29:47;77.30;6476.80
55331;DHT22;58851;42.984;20.336;2023-04-28T05:32:12;77.50;6476.80
55331;DHT22;58851;42.984;20.336;2023-04-28T05:34:38;77.50;6476.80
55331;DHT22;58851;42.984;20.336;2023-04-28T05:37:04;77.60;6476.80
55331;DHT22;58851;42.984;20.336;2023-04-28T05:39:30;77.60;6476.80
55331;DHT22;58851;42.984;20.336;2023-04-28T05:41:56;102.40;6476.80
55331;DHT22;58851;42.984;20.336;2023-04-28T05:44:23;102.50;6476.80
55331;DHT22;58851;42.984;20.336;2023-04-28T05:46:49;102.50;6476.80
55331;DHT22;58851;42.984;20.336;2023-04-28T05:49:15;102.70;6476.80
55331;DHT22;58851;42.984;20.336;2023-04-28T05:51:41;102.70;6476.80
55331;DHT22;58851;42.984;20.336;2023-04-28T05:54:07;102.80;6476.80
55331;DHT22;58851;42.984;20.336;2023-04-28T05:56:33;102.80;6476.80
55331;DHT22;58851;42.984;20.336;2023-04-28T05:58:58;102.80;6476.80
55331;DHT22;58851;42.984;20.336;2023-04-28T06:01:29;103.00;6476.80
55331;DHT22;58851;42.984;20.336;2023-04-28T06:03:55;103.00;6476.80
55331;DHT22;58851;42.984;20.336;2023-04-28T06:06:23;103.10;6476.80
55331;DHT22;58851;42.984;20.336;2023-04-28T06:08:49;103.30;6476.80
55331;DHT22;58851;42.984;20.336;2023-04-28T06:11:15;128.10;6502.40
55331;DHT22;58851;42.984;20.336;2023-04-28T06:13:43;128.20;6502.40
55331;DHT22;58851;42.984;20.336;2023-04-28T06:16:09;128.40;6502.40
55331;DHT22;58851;42.984;20.336;2023-04-28T06:18:35;128.50;6502.40
55331;DHT22;58851;42.984;20.336;2023-04-28T06:21:01;128.50;6502.40
55331;DHT22;58851;42.984;20.336;2023-04-28T06:23:27;128.60;6502.40
55331;DHT22;58851;42.984;20.336;2023-04-28T06:25:53;128.70;6502.40
55331;DHT22;58851;42.984;20.336;2023-04-28T06:28:18;128.70;6502.40
55331;DHT22;58851;42.984;20.336;2023-04-28T06:30:44;128.80;6502.40
55331;DHT22;58851;42.984;20.336;2023-04-28T06:33:10;153.60;6502.40
55331;DHT22;58851;42.984;20.336;2023-04-28T06:35:36;153.70;6502.40
55331;DHT22;58851;42.984;20.336;2023-04-28T06:38:03;153.90;6502.40
55331;DHT22;58851;42.984;20.336;2023-04-28T06:40:29;154.10;6502.40
55331;DHT22;58851;42.984;20.336;2023-04-28T06:42:56;154.10;6502.40
55331;DHT22;58851;42.984;20.336;2023-04-28T06:45:21;154.20;6502.40
55331;DHT22;58851;42.984;20.336;2023-04-28T06:47:47;154.20;6502.40
55331;DHT22;58851;42.984;20.336;2023-04-28T06:50:13;154.40;6502.40
55331;DHT22;58851;42.984;20.336;2023-04-28T06:52:39;154.50;6502.40
55331;DHT22;58851;42.984;20.336;2023-04-28T06:55:08;179.30;6502.40
55331;DHT22;58851;42.984;20.336;2023-04-28T06:57:34;179.50;6502.40
55331;DHT22;58851;42.984;20.336;2023-04-28T07:00:05;179.70;6502.40
55331;DHT22;58851;42.984;20.336;2023-04-28T07:02:31;179.90;6502.40
55331;DHT22;58851;42.984;20.336;2023-04-28T07:04:56;180.10;6502.40
55331;DHT22;58851;42.984;20.336;2023-04-28T07:07:22;204.80;6502.40
55331;DHT22;58851;42.984;20.336;2023-04-28T07:09:48;204.80;6502.40
55331;DHT22;58851;42.984;20.336;2023-04-28T07:12:14;205.00;6502.40
55331;DHT22;58851;42.984;20.336;2023-04-28T07:14:40;205.00;6502.40
55331;DHT22;58851;42.984;20.336;2023-04-28T07:17:06;205.10;6502.40
55331;DHT22;58851;42.984;20.336;2023-04-28T07:19:32;205.20;435.20
55331;DHT22;58851;42.984;20.336;2023-04-28T07:21:57;205.30;6502.40
55331;DHT22;58851;42.984;20.336;2023-04-28T07:24:23;205.40;409.60
55331;DHT22;58851;42.984;20.336;2023-04-28T07:26:49;205.60;128.00
55331;DHT22;58851;42.984;20.336;2023-04-28T07:29:15;230.40;6502.40
55331;DHT22;58851;42.984;20.336;2023-04-28T07:31:41;230.60;128.00
55331;DHT22;58851;42.984;20.336;2023-04-28T07:34:07;230.80;6502.40
55331;DHT22;58851;42.984;20.336;2023-04-28T07:36:33;231.00;6502.40
55331;DHT22;58851;42.984;20.336;2023-04-28T07:38:59;231.20;6502.40
55331;DHT22;58851;42.984;20.336;2023-04-28T07:41:26;231.30;6502.40
55331;DHT22;58851;42.984;20.336;2023-04-28T07:43:52;256.10;6502.40
55331;DHT22;58851;42.984;20.336;2023-04-28T07:46:18;256.30;6502.40
55331;DHT22;58851;42.984;20.336;2023-04-28T07:48:44;256.20;6502.40
55331;DHT22;58851;42.984;20.336;2023-04-28T07:51:09;256.20;6502.40
55331;DHT22;58851;42.984;20.336;2023-04-28T07:53:36;256.50;6502.40
55331;DHT22;58851;42.984;20.336;2023-04-28T07:56:02;256.50;6502.40
55331;DHT22;58851;42.984;20.336;2023-04-28T07:58:28;256.60;6502.40
55331;DHT22;58851;42.984;20.336;2023-04-28T08:00:54;256.90;6502.40
55331;DHT22;58851;42.984;20.336;2023-04-28T08:03:19;281.60;6528.00
55331;DHT22;58851;42.984;20.336;2023-04-28T08:05:45;281.70;6528.00
55331;DHT22;58851;42.984;20.336;2023-04-28T08:08:11;281.90;6528.00
55331;DHT22;58851;42.984;20.336;2023-04-28T08:10:37;282.10;6528.00
55331;DHT22;58851;42.984;20.336;2023-04-28T08:13:06;282.30;6528.00
55331;DHT22;58851;42.984;20.336;2023-04-28T08:15:32;282.10;6528.00
55331;DHT22;58851;42.984;20.336;2023-04-28T08:17:58;282.20;6528.00
55331;DHT22;58851;42.984;20.336;2023-04-28T08:20:24;282.40;6528.00
55331;DHT22;58851;42.984;20.336;2023-04-28T08:22:50;282.40;6528.00
55331;DHT22;58851;42.984;20.336;2023-04-28T08:25:16;282.40;6528.00
55331;DHT22;58851;42.984;20.336;2023-04-28T08:27:42;307.20;128.00
55331;DHT22;58851;42.984;20.336;2023-04-28T08:30:09;307.40;128.00
55331;DHT22;58851;42.984;20.336;2023-04-28T08:32:34;307.60;128.00
55331;DHT22;58851;42.984;20.336;2023-04-28T08:35:00;307.70;128.00
55331;DHT22;58851;42.984;20.336;2023-04-28T08:37:26;307.80;128.00
55331;DHT22;58851;42.984;20.336;2023-04-28T08:39:52;307.70;128.00
55331;DHT22;58851;42.984;20.336;2023-04-28T08:42:30;307.70;128.00
55331;DHT22;58851;42.984;20.336;2023-04-28T08:44:57;307.90;128.00
55331;DHT22;58851;42.984;20.336;2023-04-28T08:47:36;307.90;128.00
55331;DHT22;58851;42.984;20.336;2023-04-28T08:50:21;308.00;128.00
55331;DHT22;58851;42.984;20.336;2023-04-28T08:52:47;307.90;128.00
55331;DHT22;58851;42.984;20.336;2023-04-28T08:55:17;307.90;128.00
55331;DHT22;58851;42.984;20.336;2023-04-28T08:57:45;307.90;128.00
55331;DHT22;58851;42.984;20.336;2023-04-28T09:00:13;307.70;128.00
55331;DHT22;58851;42.984;20.336;2023-04-28T09:02:39;307.90;128.00
55331;DHT22;58851;42.984;20.336;2023-04-28T09:05:12;308.10;128.00
55331;DHT22;58851;42.984;20.336;2023-04-28T09:07:39;332.80;128.00
55331;DHT22;58851;42.984;20.336;2023-04-28T09:10:19;333.00;128.00
55331;DHT22;58851;42.984;20.336;2023-04-28T09:12:46;333.20;128.00
55331;DHT22;58851;42.984;20.336;2023-04-28T09:15:48;333.30;128.00
55331;DHT22;58851;42.984;20.336;2023-04-28T09:18:15;333.30;128.00
55331;DHT22;58851;42.984;20.336;2023-04-28T09:20:41;333.30;128.00
55331;DHT22;58851;42.984;20.336;2023-04-28T09:23:20;333.50;128.00
55331;DHT22;58851;42.984;20.336;2023-04-28T09:26:02;333.50;128.00
55331;DHT22;58851;42.984;20.336;2023-04-28T09:28:30;333.50;128.00
55331;DHT22;58851;42.984;20.336;2023-04-28T09:30:56;333.70;128.00
55331;DHT22;58851;42.984;20.336;2023-04-28T09:33:22;358.40;128.00
55331;DHT22;58851;42.984;20.336;2023-04-28T09:35:48;358.50;128.00
55331;DHT22;58851;42.984;20.336;2023-04-28T09:38:15;358.60;128.00
55331;DHT22;58851;42.984;20.336;2023-04-28T09:40:54;358.70;128.00
55331;DHT22;58851;42.984;20.336;2023-04-28T09:43:33;358.70;128.00
55331;DHT22;58851;42.984;20.336;2023-04-28T09:46:03;358.70;128.00
55331;DHT22;58851;42.984;20.336;2023-04-28T09:48:34;358.60;128.00
55331;DHT22;58851;42.984;20.336;2023-04-28T09:51:02;358.80;128.00
55331;DHT22;58851;42.984;20.336;2023-04-28T09:53:29;358.60;128.00
55331;DHT22;58851;42.984;20.336;2023-04-28T09:55:56;358.40;128.00
55331;DHT22;58851;42.984;20.336;2023-04-28T09:58:23;333.60;128.00
55331;DHT22;58851;42.984;20.336;2023-04-28T10:00:55;333.70;128.00
55331;DHT22;58851;42.984;20.336;2023-04-28T10:03:23;333.70;128.00
55331;DHT22;58851;42.984;20.336;2023-04-28T10:05:49;358.50;128.00
55331;DHT22;58851;42.984;20.336;2023-04-28T10:08:19;358.40;128.00
55331;DHT22;58851;42.984;20.336;2023-04-28T10:10:50;333.70;128.00
55331;DHT22;58851;42.984;20.336;2023-04-28T10:13:22;358.50;128.00
55331;DHT22;58851;42.984;20.336;2023-04-28T10:15:49;358.60;128.00
55331;DHT22;58851;42.984;20.336;2023-04-28T10:18:16;358.50;128.00
55331;DHT22;58851;42.984;20.336;2023-04-28T10:20:47;358.60;128.00
55331;DHT22;58851;42.984;20.336;2023-04-28T10:26:09;358.80;128.00
55331;DHT22;58851;42.984;20.336;2023-04-28T10:28:36;359.00;128.00
55331;DHT22;58851;42.984;20.336;2023-04-28T10:31:16;359.00;128.00
55331;DHT22;58851;42.984;20.336;2023-04-28T10:33:42;359.10;128.00
55331;DHT22;58851;42.984;20.336;2023-04-28T10:36:09;359.20;128.00
55331;DHT22;58851;42.984;20.336;2023-04-28T10:38:36;384.00;128.00
55331;DHT22;58851;42.984;20.336;2023-04-28T10:41:33;384.30;128.00
55331;DHT22;58851;42.984;20.336;2023-04-28T10:43:58;384.40;128.00
55331;DHT22;58851;42.984;20.336;2023-04-28T10:46:24;384.10;128.00
55331;DHT22;58851;42.984;20.336;2023-04-28T10:56:16;384.50;128.00
55331;DHT22;58851;42.984;20.336;2023-04-28T10:58:49;384.60;128.00
55331;DHT22;58851;42.984;20.336;2023-04-28T11:03:50;384.80;128.00
55331;DHT22;58851;42.984;20.336;2023-04-28T11:06:32;384.60;128.00
55331;DHT22;58851;42.984;20.336;2023-04-28T11:11:37;384.60;128.00
55331;DHT22;58851;42.984;20.336;2023-04-28T11:16:55;384.50;128.00
55331;DHT22;58851;42.984;20.336;2023-04-28T11:19:28;384.70;128.00
55331;DHT22;58851;42.984;20.336;2023-04-28T11:21:56;384.70;128.00
55331;DHT22;58851;42.984;20.336;2023-04-28T11:24:26;384.90;128.00
55331;DHT22;58851;42.984;20.336;2023-04-28T11:26:57;409.60;128.00
55331;DHT22;58851;42.984;20.336;2023-04-28T11:29:37;409.90;128.00
55331;DHT22;58851;42.984;20.336;2023-04-28T11:32:08;410.00;128.00
55331;DHT22;58851;42.984;20.336;2023-04-28T11:34:35;410.30;128.00
55331;DHT22;58851;42.984;20.336;2023-04-28T11:37:01;435.20;128.00
55331;DHT22;58851;42.984;20.336;2023-04-28T11:39:29;435.20;128.00
55331;DHT22;58851;42.984;20.336;2023-04-28T11:41:56;435.60;128.00
55331;DHT22;58851;42.984;20.336;2023-04-28T11:44:24;435.80;128.00
55331;DHT22;58851;42.984;20.336;2023-04-28T11:49:20;436.10;128.00
55331;DHT22;58851;42.984;20.336;2023-04-28T11:51:49;436.10;128.00
55331;DHT22;58851;42.984;20.336;2023-04-28T11:54:22;435.80;128.00
55331;DHT22;58851;42.984;20.336;2023-04-28T11:56:48;435.90;128.00
55331;DHT22;58851;42.984;20.336;2023-04-28T11:59:15;435.90;128.00
55331;DHT22;58851;42.984;20.336;2023-04-28T12:01:52;435.80;128.00
55331;DHT22;58851;42.984;20.336;2023-04-28T12:07:11;435.80;128.00
55331;DHT22;58851;42.984;20.336;2023-04-28T12:09:43;435.80;128.00
55331;DHT22;58851;42.984;20.336;2023-04-28T12:12:28;436.00;128.00
55331;DHT22;58851;42.984;20.336;2023-04-28T12:14:56;460.80;128.00
55331;DHT22;58851;42.984;20.336;2023-04-28T12:20:00;461.10;128.00
55331;DHT22;58851;42.984;20.336;2023-04-28T12:22:26;461.50;128.00
55331;DHT22;58851;42.984;20.336;2023-04-28T12:25:03;461.70;128.00
55331;DHT22;58851;42.984;20.336;2023-04-28T12:27:29;486.40;128.00
55331;DHT22;58851;42.984;20.336;2023-04-28T12:29:56;461.30;128.00
55331;DHT22;58851;42.984;20.336;2023-04-28T12:32:43;461.00;128.00
55331;DHT22;58851;42.984;20.336;2023-04-28T12:35:09;461.30;128.00
55331;DHT22;58851;42.984;20.336;2023-04-28T12:37:35;461.50;128.00
55331;DHT22;58851;42.984;20.336;2023-04-28T12:40:03;486.70;128.00
55331;DHT22;58851;42.984;20.336;2023-04-28T12:42:29;487.00;128.00
55331;DHT22;58851;42.984;20.336;2023-04-28T12:44:55;487.10;128.00
55331;DHT22;58851;42.984;20.336;2023-04-28T12:47:22;512.10;128.00
55331;DHT22;58851;42.984;20.336;2023-04-28T12:49:48;512.60;128.00
55331;DHT22;58851;42.984;20.336;2023-04-28T12:52:19;537.60;128.00
55331;DHT22;58851;42.984;20.336;2023-04-28T12:54:45;537.90;128.00
55331;DHT22;58851;42.984;20.336;2023-04-28T12:57:15;537.90;128.00
55331;DHT22;58851;42.984;20.336;2023-04-28T12:59:45;512.70;128.00
55331;DHT22;58851;42.984;20.336;2023-04-28T13:02:13;537.80;128.00
55331;DHT22;58851;42.984;20.336;2023-04-28T13:04:41;537.70;128.00
55331;DHT22;58851;42.984;20.336;2023-04-28T13:07:13;538.30;128.00
55331;DHT22;58851;42.984;20.336;2023-04-28T13:09:40;538.40;128.00
55331;DHT22;58851;42.984;20.336;2023-04-28T13:12:09;538.20;128.00
55331;DHT22;58851;42.984;20.336;2023-04-28T13:14:36;538.10;128.00
55331;DHT22;58851;42.984;20.336;2023-04-28T13:17:02;538.40;128.00
55331;DHT22;58851;42.984;20.336;2023-04-28T13:19:28;563.30;128.00
55331;DHT22;58851;42.984;20.336;2023-04-28T13:21:56;563.90;128.00
55331;DHT22;58851;42.984;20.336;2023-04-28T13:24:21;588.80;128.00
55331;DHT22;58851;42.984;20.336;2023-04-28T13:26:47;563.70;128.00
55331;DHT22;58851;42.984;20.336;2023-04-28T13:29:13;564.00;128.00
55331;DHT22;58851;42.984;20.336;2023-04-28T13:31:39;563.80;128.00
55331;DHT22;58851;42.984;20.336;2023-04-28T13:34:05;588.80;128.00
55331;DHT22;58851;42.984;20.336;2023-04-28T13:36:32;589.30;128.00
55331;DHT22;58851;42.984;20.336;2023-04-28T13:38:58;589.10;128.00
55331;DHT22;58851;42.984;20.336;2023-04-28T13:41:24;588.90;128.00
55331;DHT22;58851;42.984;20.336;2023-04-28T13:43:51;564.00;128.00
55331;DHT22;58851;42.984;20.336;2023-04-28T13:46:18;564.10;128.00
55331;DHT22;58851;42.984;20.336;2023-04-28T13:48:44;589.00;128.00
55331;DHT22;58851;42.984;20.336;2023-04-28T13:51:10;589.50;128.00
55331;DHT22;58851;42.984;20.336;2023-04-28T13:53:37;614.90;128.00
55331;DHT22;58851;42.984;20.336;2023-04-28T13:56:04;640.00;128.00
55331;DHT22;58851;42.984;20.336;2023-04-28T13:58:30;640.40;128.00
55331;DHT22;58851;42.984;20.336;2023-04-28T14:00:56;640.80;128.00
55331;DHT22;58851;42.984;20.336;2023-04-28T14:03:22;640.50;128.00
55331;DHT22;58851;42.984;20.336;2023-04-28T14:05:52;640.70;128.00
55331;DHT22;58851;42.984;20.336;2023-04-28T14:08:19;640.60;128.00
55331;DHT22;58851;42.984;20.336;2023-04-28T14:10:45;640.60;128.00
55331;DHT22;58851;42.984;20.336;2023-04-28T14:13:12;640.20;128.00
55331;DHT22;58851;42.984;20.336;2023-04-28T14:15:38;614.80;128.00
55331;DHT22;58851;42.984;20.336;2023-04-28T14:18:05;589.50;128.00
55331;DHT22;58851;42.984;20.336;2023-04-28T14:20:31;614.40;128.00
55331;DHT22;58851;42.984;20.336;2023-04-28T14:22:57;614.50;128.00
55331;DHT22;58851;42.984;20.336;2023-04-28T14:25:23;588.80;128.00
55331;DHT22;58851;42.984;20.336;2023-04-28T14:27:50;564.00;128.00
55331;DHT22;58851;42.984;20.336;2023-04-28T14:30:16;588.80;128.00
55331;DHT22;58851;42.984;20.336;2023-04-28T14:32:42;564.00;128.00
55331;DHT22;58851;42.984;20.336;2023-04-28T14:35:10;564.10;128.00
55331;DHT22;58851;42.984;20.336;2023-04-28T14:37:36;589.00;128.00
55331;DHT22;58851;42.984;20.336;2023-04-28T14:40:02;589.10;128.00
55331;DHT22;58851;42.984;20.336;2023-04-28T14:42:31;588.90;128.00
55331;DHT22;58851;42.984;20.336;2023-04-28T14:44:58;589.50;128.00
55331;DHT22;58851;42.984;20.336;2023-04-28T14:47:24;614.50;128.00
55331;DHT22;58851;42.984;20.336;2023-04-28T14:49:52;614.70;128.00
55331;DHT22;58851;42.984;20.336;2023-04-28T14:52:21;640.00;128.00
55331;DHT22;58851;42.984;20.336;2023-04-28T14:54:47;640.50;128.00
55331;DHT22;58851;42.984;20.336;2023-04-28T14:57:13;666.30;153.60
55331;DHT22;58851;42.984;20.336;2023-04-28T14:59:39;691.80;153.60
55331;DHT22;58851;42.984;20.336;2023-04-28T15:02:06;692.10;153.60
55331;DHT22;58851;42.984;20.336;2023-04-28T15:04:33;717.10;179.20
55331;DHT22;58851;42.984;20.336;2023-04-28T15:06:59;717.40;179.20
55331;DHT22;58851;42.984;20.336;2023-04-28T15:09:26;716.80;179.20
55331;DHT22;58851;42.984;20.336;2023-04-28T15:11:52;691.40;153.60